createdAt,value
2023-04-04T00:00:51.732Z,87.50
2023-04-04T00:03:19.890Z,87.50
2023-04-04T00:05:48.047Z,87.50
2023-04-04T00:08:15.811Z,87.70
2023-04-04T00:10:45.333Z,88.30
2023-04-04T00:13:13.307Z,88.20
2023-04-04T00:15:40.744Z,88.00
2023-04-04T00:18:08.451Z,88.00
2023-04-04T00:20:36.587Z,88.30
2023-04-04T00:23:07.322Z,88.30
2023-04-04T00:25:35.457Z,88.50
2023-04-04T00:28:03.304Z,88.60
2023-04-04T00:30:34.558Z,89.40
2023-04-04T00:33:02.459Z,88.80
2023-04-04T00:35:30.631Z,89.70
2023-04-04T00:38:01.426Z,89.10
2023-04-04T00:40:29.103Z,88.80
2023-04-04T00:43:00.521Z,89.20
2023-04-04T00:45:28.747Z,89.50
2023-04-04T00:47:57.353Z,89.60
2023-04-04T00:50:26.144Z,89.90
2023-04-04T00:52:55.888Z,90.00
2023-04-04T00:55:24.018Z,90.00
2023-04-04T00:57:52.453Z,90.10
2023-04-04T01:00:21.542Z,90.20
2023-04-04T01:02:49.850Z,90.20
2023-04-04T01:05:18.371Z,90.20
2023-04-04T01:07:46.194Z,90.30
2023-04-04T01:10:14.506Z,90.40
2023-04-04T01:12:43.180Z,90.40
2023-04-04T01:15:11.512Z,90.50
2023-04-04T01:17:41.976Z,90.50
2023-04-04T01:20:16.279Z,90.50
2023-04-04T01:22:56.939Z,90.90
2023-04-04T01:25:32.314Z,90.50
2023-04-04T01:28:05.014Z,90.70
2023-04-04T01:30:35.540Z,90.70
2023-04-04T01:33:29.352Z,90.80
2023-04-04T01:36:18.157Z,91.00
2023-04-04T01:38:54.269Z,90.90
2023-04-04T01:41:24.958Z,91.00
2023-04-04T01:44:06.698Z,91.10
2023-04-04T01:46:37.364Z,91.10
2023-04-04T01:49:09.035Z,91.20
2023-04-04T01:51:39.188Z,91.20
2023-04-04T01:54:07.178Z,91.40
2023-04-04T01:56:35.046Z,91.40
2023-04-04T01:59:02.937Z,91.50
2023-04-04T02:01:30.911Z,91.50
2023-04-04T02:03:58.679Z,91.60
2023-04-04T02:06:26.249Z,91.80
2023-04-04T02:08:53.985Z,91.80
2023-04-04T02:11:23.094Z,91.80
2023-04-04T02:13:50.601Z,91.90
2023-04-04T02:16:20.175Z,92.00
2023-04-04T02:18:47.976Z,92.10
2023-04-04T02:21:15.614Z,92.10
2023-04-04T02:23:43.083Z,92.20
2023-04-04T02:26:11.195Z,92.20
2023-04-04T02:28:39.728Z,92.20
2023-04-04T02:31:07.311Z,92.30
2023-04-04T02:33:35.661Z,92.30
2023-04-04T02:36:06.200Z,92.30
2023-04-04T02:38:34.623Z,92.40
2023-04-04T02:41:05.333Z,92.40
2023-04-04T02:43:32.964Z,92.50
2023-04-04T02:46:10.876Z,92.50
2023-04-04T02:48:46.620Z,92.60
2023-04-04T02:51:14.459Z,92.60
2023-04-04T02:53:43.908Z,92.60
2023-04-04T02:56:20.644Z,92.70
2023-04-04T02:58:51.262Z,92.80
2023-04-04T03:01:19.100Z,92.80
2023-04-04T03:03:47.579Z,92.80
2023-04-04T03:06:15.441Z,92.80
2023-04-04T03:08:43.019Z,92.90
2023-04-04T03:11:11.044Z,93.00
2023-04-04T03:13:38.598Z,93.00
2023-04-04T03:16:07.642Z,93.10
2023-04-04T03:18:55.483Z,93.10
2023-04-04T03:21:23.050Z,93.20
2023-04-04T03:23:51.223Z,93.60
2023-04-04T03:26:20.447Z,93.30
2023-04-04T03:28:48.427Z,93.40
2023-04-04T03:31:16.865Z,93.40
2023-04-04T03:33:45.191Z,93.50
2023-04-04T03:36:13.465Z,93.50
2023-04-04T03:38:41.268Z,93.60
2023-04-04T03:41:10.446Z,93.60
2023-04-04T03:43:38.035Z,93.60
2023-04-04T03:46:07.249Z,93.70
2023-04-04T03:48:35.143Z,93.70
2023-04-04T03:51:05.678Z,93.70
2023-04-04T03:53:35.641Z,93.70
2023-04-04T03:56:03.705Z,93.80
2023-04-04T03:58:31.454Z,93.80
2023-04-04T04:00:58.878Z,93.80
2023-04-04T04:03:30.342Z,93.90
2023-04-04T04:05:58.960Z,94.00
2023-04-04T04:08:27.958Z,94.00
2023-04-04T04:10:55.754Z,94.10
2023-04-04T04:13:23.424Z,94.10
2023-04-04T04:15:51.592Z,94.20
2023-04-04T04:18:23.124Z,94.30
2023-04-04T04:20:59.112Z,94.30
2023-04-04T04:23:27.507Z,94.30
2023-04-04T04:25:55.416Z,94.30
2023-04-04T04:28:34.126Z,94.40
2023-04-04T04:31:06.984Z,94.40
2023-04-04T04:33:36.753Z,94.30
2023-04-04T04:36:07.170Z,94.30
2023-04-04T04:38:46.533Z,94.40
2023-04-04T04:41:16.253Z,94.40
2023-04-04T04:43:47.608Z,94.40
2023-04-04T04:46:15.836Z,94.50
2023-04-04T04:48:43.503Z,94.60
2023-04-04T04:51:14.857Z,94.60
2023-04-04T04:53:47.409Z,94.70
2023-04-04T04:56:15.181Z,94.70
2023-04-04T04:58:45.540Z,94.70
2023-04-04T05:01:20.186Z,94.80
2023-04-04T05:03:48.693Z,94.90
2023-04-04T05:06:22.735Z,94.90
2023-04-04T05:08:51.364Z,95.00
2023-04-04T05:11:27.091Z,95.00
2023-04-04T05:13:55.328Z,95.00
2023-04-04T05:16:24.574Z,95.00
2023-04-04T05:18:56.506Z,95.10
2023-04-04T05:21:24.089Z,95.10
2023-04-04T05:23:53.858Z,95.20
2023-04-04T05:26:24.924Z,95.20
2023-04-04T05:28:55.403Z,95.20
2023-04-04T05:31:25.286Z,95.20
2023-04-04T05:33:53.986Z,95.20
2023-04-04T05:36:31.985Z,95.30
2023-04-04T05:39:07.638Z,95.30
2023-04-04T05:41:40.480Z,95.40
2023-04-04T05:44:16.193Z,95.50
2023-04-04T05:46:44.448Z,95.50
2023-04-04T05:49:12.338Z,95.60
2023-04-04T05:51:44.648Z,95.70
2023-04-04T05:54:15.071Z,95.70
2023-04-04T05:56:43.535Z,95.80
2023-04-04T05:59:18.086Z,95.90
2023-04-04T06:01:56.673Z,96.00
2023-04-04T06:04:24.384Z,96.00
2023-04-04T06:06:54.347Z,96.00
2023-04-04T06:09:22.427Z,96.10
2023-04-04T06:11:50.159Z,96.10
2023-04-04T06:14:18.768Z,96.20
2023-04-04T06:16:47.425Z,96.30
2023-04-04T06:19:16.844Z,96.40
2023-04-04T06:21:44.429Z,96.40
2023-04-04T06:24:13.941Z,96.50
2023-04-04T06:26:42.742Z,96.50
2023-04-04T06:29:10.197Z,96.70
2023-04-04T06:31:39.312Z,96.70
2023-04-04T06:34:11.193Z,96.80
2023-04-04T06:36:52.847Z,96.80
2023-04-04T06:39:21.874Z,96.90
2023-04-04T06:41:51.317Z,97.00
2023-04-04T06:44:24.255Z,97.00
2023-04-04T06:46:52.025Z,97.00
2023-04-04T06:49:19.626Z,97.10
2023-04-04T06:51:50.669Z,97.20
2023-04-04T06:54:18.256Z,97.20
2023-04-04T06:56:46.447Z,97.30
2023-04-04T06:59:14.128Z,97.40
2023-04-04T07:01:41.626Z,97.50
2023-04-04T07:04:09.157Z,97.50
2023-04-04T07:06:36.668Z,97.60
2023-04-04T07:09:05.886Z,97.70
2023-04-04T07:11:34.903Z,97.80
2023-04-04T07:14:02.399Z,97.80
2023-04-04T07:16:29.840Z,97.90
2023-04-04T07:18:57.336Z,98.00
2023-04-04T07:21:25.644Z,98.40
2023-04-04T07:23:53.727Z,98.20
2023-04-04T07:26:21.534Z,98.20
2023-04-04T07:28:48.939Z,98.30
2023-04-04T07:31:16.447Z,98.40
2023-04-04T07:33:43.868Z,98.40
2023-04-04T07:36:11.345Z,98.60
2023-04-04T07:38:38.754Z,98.70
2023-04-04T07:41:06.461Z,98.70
2023-04-04T07:43:34.052Z,98.80
2023-04-04T07:46:02.036Z,98.80
2023-04-04T07:48:29.477Z,98.90
2023-04-04T07:50:57.555Z,98.90
2023-04-04T07:53:24.999Z,99.00
2023-04-04T07:55:52.399Z,99.00
2023-04-04T08:01:30.842Z,99.20
2023-04-04T08:03:58.822Z,99.10
2023-04-04T08:06:27.274Z,99.20
2023-04-04T08:08:54.820Z,99.30
2023-04-04T08:11:23.153Z,99.40
2023-04-04T08:13:51.680Z,99.40
2023-04-04T08:16:20.326Z,99.40
2023-04-04T08:18:48.292Z,99.40
2023-04-04T08:21:15.920Z,99.40
2023-04-04T08:23:43.787Z,99.40
2023-04-04T08:26:11.912Z,99.40
2023-04-04T08:28:39.688Z,99.40
2023-04-04T08:31:08.786Z,99.40
2023-04-04T08:33:47.375Z,99.40
2023-04-04T08:36:16.345Z,99.30
2023-04-04T08:38:44.634Z,99.30
2023-04-04T08:41:14.059Z,99.20
2023-04-04T08:43:46.348Z,99.60
2023-04-04T08:46:15.716Z,99.30
2023-04-04T08:48:44.852Z,99.30
2023-04-04T08:51:14.707Z,99.20
2023-04-04T08:53:42.497Z,99.00
2023-04-04T08:56:10.234Z,98.90
2023-04-04T08:58:39.085Z,98.70
2023-04-04T09:01:07.831Z,98.50
2023-04-04T09:03:37.578Z,98.20
2023-04-04T09:06:05.499Z,97.90
2023-04-04T09:08:37.178Z,97.60
2023-04-04T09:11:06.743Z,97.30
2023-04-04T09:13:34.618Z,97.00
2023-04-04T09:16:02.354Z,96.80
2023-04-04T09:18:30.404Z,96.50
2023-04-04T09:20:58.241Z,96.10
2023-04-04T09:23:25.769Z,95.90
2023-04-04T09:26:04.056Z,95.60
2023-04-04T09:28:33.551Z,95.30
2023-04-04T09:31:06.107Z,95.10
2023-04-04T09:33:34.384Z,95.00
2023-04-04T09:36:12.780Z,94.90
2023-04-04T09:38:45.426Z,94.50
2023-04-04T09:41:17.985Z,94.40
2023-04-04T09:43:46.692Z,93.90
2023-04-04T09:46:15.952Z,94.80
2023-04-04T09:48:53.213Z,94.50
2023-04-04T09:51:21.717Z,93.30
2023-04-04T09:53:49.655Z,92.80
2023-04-04T09:56:17.572Z,92.30
2023-04-04T09:58:56.647Z,92.10
2023-04-04T10:01:30.712Z,91.60
2023-04-04T10:03:58.549Z,91.50
2023-04-04T10:06:27.140Z,91.30
2023-04-04T10:08:56.535Z,90.80
2023-04-04T10:11:35.138Z,90.50
2023-04-04T10:14:04.052Z,90.20
2023-04-04T10:16:38.280Z,90.10
2023-04-04T10:19:07.819Z,89.00
2023-04-04T10:21:35.854Z,87.90
2023-04-04T10:24:09.482Z,86.90
2023-04-04T10:26:37.804Z,86.40
2023-04-04T10:29:05.953Z,86.30
2023-04-04T10:31:38.367Z,86.10
2023-04-04T10:34:32.766Z,85.40
2023-04-04T10:37:18.177Z,84.40
2023-04-04T10:40:01.346Z,83.90
2023-04-04T10:42:37.128Z,83.40
2023-04-04T10:45:20.578Z,83.30
2023-04-04T10:47:50.565Z,82.30
2023-04-04T10:50:23.272Z,82.00
2023-04-04T10:52:51.790Z,80.20
2023-04-04T10:55:20.186Z,78.90
2023-04-04T10:57:52.470Z,78.30
2023-04-04T11:00:23.795Z,77.50
2023-04-04T11:02:59.569Z,76.60
2023-04-04T11:05:34.758Z,76.10
2023-04-04T11:08:09.057Z,75.40
2023-04-04T11:10:48.930Z,75.30
2023-04-04T11:13:35.595Z,74.10
2023-04-04T11:16:21.864Z,71.40
2023-04-04T11:18:50.337Z,70.90
2023-04-04T11:21:24.847Z,70.80
2023-04-04T11:23:52.274Z,69.80
2023-04-04T11:26:28.841Z,68.90
2023-04-04T11:29:00.630Z,68.20
2023-04-04T11:31:32.927Z,68.50
2023-04-04T11:34:07.989Z,66.10
2023-04-04T11:36:36.044Z,64.10
2023-04-04T11:39:08.273Z,63.90
2023-04-04T11:41:54.180Z,61.70
2023-04-04T11:44:23.951Z,61.20
2023-04-04T11:47:06.113Z,60.10
2023-04-04T11:49:36.525Z,59.00
2023-04-04T11:52:11.998Z,57.50
2023-04-04T11:54:41.731Z,57.40
2023-04-04T11:57:12.465Z,56.30
2023-04-04T11:59:41.682Z,55.70
2023-04-04T12:02:14.069Z,55.70
2023-04-04T12:04:45.412Z,56.10
2023-04-04T12:07:14.157Z,56.00
2023-04-04T12:09:42.483Z,55.40
2023-04-04T12:12:14.533Z,53.80
2023-04-04T12:14:43.443Z,52.60
2023-04-04T12:17:11.696Z,53.20
2023-04-04T12:19:40.550Z,52.80
2023-04-04T12:22:08.523Z,52.30
2023-04-04T12:24:36.940Z,51.90
2023-04-04T12:27:06.170Z,51.00
2023-04-04T12:29:36.461Z,50.70
2023-04-04T12:32:05.665Z,50.00
2023-04-04T12:34:35.271Z,48.50
2023-04-04T12:37:03.995Z,47.80
2023-04-04T12:39:31.940Z,46.60
2023-04-04T12:42:03.730Z,46.30
2023-04-04T12:44:40.840Z,45.60
2023-04-04T12:47:11.364Z,44.80
2023-04-04T12:49:40.079Z,45.20
2023-04-04T12:52:16.187Z,47.20
2023-04-04T12:57:18.711Z,45.60
2023-04-04T12:59:47.574Z,44.90
2023-04-04T13:02:17.707Z,44.70
2023-04-04T13:04:47.536Z,44.20
2023-04-04T13:07:29.500Z,44.20
2023-04-04T13:10:05.564Z,43.20
2023-04-04T13:12:56.885Z,42.80
2023-04-04T13:15:45.186Z,42.10
2023-04-04T13:18:18.081Z,42.20
2023-04-04T13:20:45.641Z,42.00
2023-04-04T13:23:14.683Z,39.60
2023-04-04T13:25:43.177Z,38.10
2023-04-04T13:28:14.489Z,38.70
2023-04-04T13:30:46.880Z,37.60
2023-04-04T13:33:15.803Z,37.40
2023-04-04T13:35:44.597Z,36.80
2023-04-04T13:38:12.754Z,36.70
2023-04-04T13:40:40.767Z,36.90
2023-04-04T13:43:08.777Z,36.70
2023-04-04T13:45:36.301Z,36.30
2023-04-04T13:48:04.481Z,35.90
2023-04-04T13:50:33.167Z,35.90
2023-04-04T13:53:00.635Z,37.20
2023-04-04T13:55:28.399Z,37.90
2023-04-04T13:57:56.092Z,38.60
2023-04-04T14:00:25.658Z,39.10
2023-04-04T14:02:55.730Z,39.40
2023-04-04T14:05:24.636Z,39.10
2023-04-04T14:07:52.125Z,38.70
2023-04-04T14:10:20.028Z,38.20
2023-04-04T14:12:47.727Z,37.70
2023-04-04T14:15:15.905Z,38.00
2023-04-04T14:17:43.597Z,38.50
2023-04-04T14:20:11.759Z,38.40
2023-04-04T14:22:39.297Z,38.40
2023-04-04T14:25:07.323Z,38.30
2023-04-04T14:27:34.985Z,38.20
2023-04-04T14:30:02.605Z,38.10
2023-04-04T14:32:30.111Z,38.10
2023-04-04T14:34:57.618Z,37.70
2023-04-04T14:37:25.144Z,37.80
2023-04-04T14:39:52.839Z,37.70
2023-04-04T14:42:20.497Z,37.50
2023-04-04T14:44:47.962Z,37.60
2023-04-04T14:47:15.880Z,37.30
2023-04-04T14:49:43.465Z,37.20
2023-04-04T14:52:12.303Z,37.10
2023-04-04T14:54:43.269Z,36.70
2023-04-04T14:57:13.471Z,36.30
2023-04-04T14:59:41.468Z,36.40
2023-04-04T15:02:09.395Z,36.30
2023-04-04T15:04:37.983Z,35.90
2023-04-04T15:07:05.875Z,35.70
2023-04-04T15:09:33.434Z,35.60
2023-04-04T15:12:01.838Z,35.40
2023-04-04T15:14:29.443Z,35.30
2023-04-04T15:16:56.954Z,35.20
2023-04-04T15:19:24.400Z,34.90
2023-04-04T15:21:52.011Z,34.90
2023-04-04T15:24:19.910Z,34.90
2023-04-04T15:26:47.576Z,35.10
2023-04-04T15:29:15.673Z,35.20
2023-04-04T15:31:43.352Z,34.90
2023-04-04T15:34:11.262Z,34.80
2023-04-04T15:36:39.065Z,35.30
2023-04-04T15:39:06.704Z,35.20
2023-04-04T15:41:34.265Z,34.90
2023-04-04T15:44:01.923Z,34.90
2023-04-04T15:46:30.543Z,34.70
2023-04-04T15:48:58.209Z,34.20
2023-04-04T15:51:26.202Z,33.90
2023-04-04T15:53:55.382Z,33.60
2023-04-04T15:56:23.020Z,33.60
2023-04-04T15:58:50.661Z,33.80
2023-04-04T16:01:18.329Z,33.80
2023-04-04T16:03:46.813Z,33.80
2023-04-04T16:06:14.788Z,34.20
2023-04-04T16:08:43.434Z,34.90
2023-04-04T16:11:11.794Z,34.00
2023-04-04T16:13:39.537Z,34.00
2023-04-04T16:16:07.084Z,33.90
2023-04-04T16:18:34.802Z,33.90
2023-04-04T16:21:03.439Z,33.70
2023-04-04T16:23:35.855Z,34.00
2023-04-04T16:26:03.395Z,34.00
2023-04-04T16:28:30.996Z,34.40
2023-04-04T16:30:59.440Z,34.50
2023-04-04T16:33:27.659Z,34.00
2023-04-04T16:35:55.337Z,34.10
2023-04-04T16:38:23.325Z,33.90
2023-04-04T16:40:51.068Z,34.00
2023-04-04T16:43:18.577Z,33.80
2023-04-04T16:45:46.197Z,33.90
2023-04-04T16:48:13.737Z,33.90
2023-04-04T16:50:41.503Z,33.80
2023-04-04T16:53:09.948Z,34.20
2023-04-04T16:55:38.121Z,34.30
2023-04-04T16:58:05.982Z,34.10
2023-04-04T17:00:33.474Z,34.30
2023-04-04T17:03:03.672Z,34.40
2023-04-04T17:05:31.540Z,34.60
2023-04-04T17:07:59.128Z,34.80
2023-04-04T17:10:27.035Z,35.30
2023-04-04T17:12:55.878Z,35.90
2023-04-04T17:15:24.427Z,36.30
2023-04-04T17:17:52.362Z,36.80
2023-04-04T17:20:20.064Z,37.40
2023-04-04T17:22:50.582Z,38.00
2023-04-04T17:25:18.825Z,38.30
2023-04-04T17:27:46.581Z,38.60
2023-04-04T17:30:14.994Z,39.10
2023-04-04T17:32:43.197Z,39.60
2023-04-04T17:35:11.026Z,40.20
2023-04-04T17:37:38.944Z,40.80
2023-04-04T17:40:08.235Z,41.40
2023-04-04T17:42:36.601Z,42.10
2023-04-04T17:45:05.181Z,42.70
2023-04-04T17:47:33.127Z,43.10
2023-04-04T17:50:00.763Z,43.60
2023-04-04T17:52:28.484Z,44.30
2023-04-04T17:54:56.062Z,44.90
2023-04-04T17:57:24.083Z,45.50
2023-04-04T17:59:51.927Z,45.90
2023-04-04T18:02:19.656Z,46.40
2023-04-04T18:04:47.646Z,46.80
2023-04-04T18:07:17.241Z,47.40
2023-04-04T18:10:02.840Z,48.00
2023-04-04T18:12:50.044Z,48.70
2023-04-04T18:15:59.175Z,49.20
2023-04-04T18:18:45.044Z,49.90
2023-04-04T18:21:16.190Z,50.10
2023-04-04T18:23:44.856Z,50.40
2023-04-04T18:26:13.213Z,50.90
2023-04-04T18:28:41.123Z,51.40
2023-04-04T18:31:09.087Z,51.80
2023-04-04T18:33:37.269Z,52.20
2023-04-04T18:36:05.659Z,52.50
2023-04-04T18:38:33.435Z,52.90
2023-04-04T18:41:01.181Z,53.30
2023-04-04T18:43:28.727Z,53.50
2023-04-04T18:45:56.347Z,53.90
2023-04-04T18:48:25.145Z,54.20
2023-04-04T18:50:53.206Z,54.60
2023-04-04T18:53:20.708Z,54.80
2023-04-04T18:55:49.205Z,55.10
2023-04-04T18:58:16.764Z,55.40
2023-04-04T19:00:44.725Z,55.70
2023-04-04T19:03:13.268Z,56.10
2023-04-04T19:05:41.743Z,56.30
2023-04-04T19:08:12.592Z,56.60
2023-04-04T19:10:43.782Z,56.90
2023-04-04T19:13:11.770Z,56.60
2023-04-04T19:15:40.058Z,56.90
2023-04-04T19:18:07.721Z,57.40
2023-04-04T19:20:35.532Z,57.90
2023-04-04T19:23:03.671Z,58.10
2023-04-04T19:25:31.512Z,58.40
2023-04-04T19:27:59.077Z,58.90
2023-04-04T19:30:49.977Z,59.50
2023-04-04T19:33:21.321Z,59.80
2023-04-04T19:35:57.159Z,59.70
2023-04-04T19:38:29.948Z,60.00
2023-04-04T19:41:02.122Z,60.30
2023-04-04T19:43:33.853Z,60.80
2023-04-04T19:46:12.872Z,61.00
2023-04-04T19:48:51.183Z,61.50
2023-04-04T19:51:19.993Z,61.90
2023-04-04T19:53:53.648Z,62.10
2023-04-04T19:56:23.048Z,62.60
2023-04-04T19:58:58.918Z,63.00
2023-04-04T20:01:31.657Z,63.50
2023-04-04T20:04:17.900Z,63.60
2023-04-04T20:06:47.915Z,64.20
2023-04-04T20:09:24.624Z,64.10
2023-04-04T20:11:52.142Z,64.80
2023-04-04T20:14:23.758Z,64.80
2023-04-04T20:16:52.296Z,65.40
2023-04-04T20:19:23.895Z,65.70
2023-04-04T20:21:52.185Z,66.10
2023-04-04T20:24:21.068Z,66.30
2023-04-04T20:26:56.777Z,67.40
2023-04-04T20:29:29.877Z,67.10
2023-04-04T20:32:08.112Z,67.50
2023-04-04T20:34:51.564Z,67.90
2023-04-04T20:37:29.282Z,68.10
2023-04-04T20:40:13.290Z,68.00
2023-04-04T20:42:41.390Z,68.40
2023-04-04T20:45:09.174Z,68.40
2023-04-04T20:47:49.147Z,68.80
2023-04-04T20:50:16.784Z,69.40
2023-04-04T20:52:51.470Z,69.30
2023-04-04T20:55:20.710Z,69.70
2023-04-04T20:57:50.305Z,69.90
2023-04-04T21:00:34.093Z,70.20
2023-04-04T21:03:11.665Z,70.80
2023-04-04T21:05:40.578Z,70.80
2023-04-04T21:08:38.639Z,71.00
2023-04-04T21:11:07.086Z,71.70
2023-04-04T21:13:45.916Z,71.50
2023-04-04T21:16:17.105Z,72.00
2023-04-04T21:18:59.908Z,72.30
2023-04-04T21:21:30.491Z,72.60
2023-04-04T21:24:00.229Z,72.70
2023-04-04T21:26:33.777Z,73.00
2023-04-04T21:29:30.860Z,73.20
2023-04-04T21:31:59.111Z,74.30
2023-04-04T21:34:27.501Z,73.70
2023-04-04T21:37:02.800Z,74.20
2023-04-04T21:39:31.282Z,74.60
2023-04-04T21:42:06.962Z,75.30
2023-04-04T21:44:36.573Z,74.80
2023-04-04T21:47:04.086Z,74.70
2023-04-04T21:49:31.572Z,74.90
2023-04-04T21:51:59.316Z,75.10
2023-04-04T21:54:26.926Z,75.20
2023-04-04T21:56:54.375Z,75.30
2023-04-04T21:59:21.910Z,75.30
2023-04-04T22:01:51.106Z,75.40
2023-04-04T22:04:18.677Z,75.50
2023-04-04T22:06:46.287Z,75.20
2023-04-04T22:09:15.487Z,75.20
2023-04-04T22:11:44.648Z,75.20
2023-04-04T22:14:17.963Z,75.50
2023-04-04T22:16:46.146Z,75.80
2023-04-04T22:19:13.957Z,75.80
2023-04-04T22:21:47.328Z,76.00
2023-04-04T22:24:15.577Z,76.20
2023-04-04T22:26:45.647Z,76.50
2023-04-04T22:29:13.300Z,76.80
2023-04-04T22:31:41.015Z,76.90
2023-04-04T22:34:09.008Z,77.30
2023-04-04T22:36:38.577Z,77.50
2023-04-04T22:39:06.296Z,77.80
2023-04-04T22:41:34.408Z,78.00
2023-04-04T22:44:01.826Z,78.10
2023-04-04T22:46:30.024Z,78.40
2023-04-04T22:49:07.204Z,78.50
2023-04-04T22:51:44.202Z,78.50
2023-04-04T22:54:14.443Z,78.40
2023-04-04T22:56:42.287Z,78.50
2023-04-04T22:59:09.948Z,78.70
2023-04-04T23:01:37.659Z,79.00
2023-04-04T23:04:05.619Z,79.40
2023-04-04T23:06:33.456Z,79.50
2023-04-04T23:09:01.990Z,79.60
2023-04-04T23:11:30.794Z,79.80
2023-04-04T23:13:58.694Z,79.80
2023-04-04T23:16:28.873Z,80.10
2023-04-04T23:18:57.035Z,80.10
2023-04-04T23:21:24.933Z,80.10
2023-04-04T23:23:52.720Z,80.30
2023-04-04T23:26:20.330Z,80.40
2023-04-04T23:28:48.275Z,80.50
2023-04-04T23:31:16.938Z,80.60
2023-04-04T23:33:45.767Z,80.60
2023-04-04T23:36:13.384Z,80.90
2023-04-04T23:38:41.060Z,81.00
2023-04-04T23:41:08.852Z,81.20
2023-04-04T23:43:36.536Z,81.30
2023-04-04T23:46:05.799Z,81.50
2023-04-04T23:48:33.612Z,81.50
2023-04-04T23:51:01.820Z,81.60
2023-04-04T23:53:29.765Z,81.90
2023-04-04T23:55:57.285Z,82.00
2023-04-04T23:58:25.008Z,82.10
